sensor_id;sensor_type;location;lat;lon;timestamp;P1;durP1;ratioP1;P2;durP2;ratioP2
8514;SDS011;4295;51.024;7.000;2022-12-01T00:00:26;83.30;;;11.20;;
8514;SDS011;4295;51.024;7.000;2022-12-01T00:02:52;82.37;;;11.30;;
8514;SDS011;4295;51.024;7.000;2022-12-01T00:05:17;82.13;;;11.00;;
8514;SDS011;4295;51.024;7.000;2022-12-01T00:07:42;85.00;;;11.53;;
8514;SDS011;4295;51.024;7.000;2022-12-01T00:10:08;85.97;;;11.77;;
8514;SDS011;4295;51.024;7.000;2022-12-01T00:12:54;82.60;;;11.30;;
8514;SDS011;4295;51.024;7.000;2022-12-01T00:15:22;82.80;;;11.10;;
8514;SDS011;4295;51.024;7.000;2022-12-01T00:17:50;84.07;;;11.97;;
8514;SDS011;4295;51.024;7.000;2022-12-01T00:20:15;82.60;;;10.17;;
8514;SDS011;4295;51.024;7.000;2022-12-01T00:22:42;88.53;;;11.80;;
8514;SDS011;4295;51.024;7.000;2022-12-01T00:25:11;85.90;;;12.43;;
8514;SDS011;4295;51.024;7.000;2022-12-01T00:27:37;84.87;;;12.20;;
8514;SDS011;4295;51.024;7.000;2022-12-01T00:30:04;84.27;;;11.60;;
8514;SDS011;4295;51.024;7.000;2022-12-01T00:32:31;83.47;;;11.87;;
8514;SDS011;4295;51.024;7.000;2022-12-01T00:34:56;83.50;;;11.93;;
8514;SDS011;4295;51.024;7.000;2022-12-01T00:37:22;82.97;;;11.40;;
8514;SDS011;4295;51.024;7.000;2022-12-01T00:39:47;84.00;;;11.27;;
8514;SDS011;4295;51.024;7.000;2022-12-01T00:42:12;84.70;;;12.63;;
8514;SDS011;4295;51.024;7.000;2022-12-01T00:44:38;84.30;;;11.40;;
8514;SDS011;4295;51.024;7.000;2022-12-01T00:47:03;83.97;;;13.30;;
8514;SDS011;4295;51.024;7.000;2022-12-01T00:49:28;84.13;;;12.13;;
8514;SDS011;4295;51.024;7.000;2022-12-01T00:51:54;86.20;;;13.13;;
8514;SDS011;4295;51.024;7.000;2022-12-01T00:54:19;81.73;;;11.13;;
8514;SDS011;4295;51.024;7.000;2022-12-01T00:56:44;85.13;;;12.00;;
8514;SDS011;4295;51.024;7.000;2022-12-01T00:59:10;84.47;;;12.60;;
8514;SDS011;4295;51.024;7.000;2022-12-01T01:01:36;84.60;;;13.20;;
8514;SDS011;4295;51.024;7.000;2022-12-01T01:04:01;88.47;;;12.53;;
8514;SDS011;4295;51.024;7.000;2022-12-01T01:06:26;87.20;;;12.83;;
8514;SDS011;4295;51.024;7.000;2022-12-01T01:08:52;88.83;;;14.30;;
8514;SDS011;4295;51.024;7.000;2022-12-01T01:11:17;86.37;;;13.50;;
8514;SDS011;4295;51.024;7.000;2022-12-01T01:13:42;87.47;;;13.43;;
8514;SDS011;4295;51.024;7.000;2022-12-01T01:16:18;92.47;;;13.73;;
8514;SDS011;4295;51.024;7.000;2022-12-01T01:18:45;86.17;;;12.23;;
8514;SDS011;4295;51.024;7.000;2022-12-01T01:21:12;88.27;;;14.17;;
8514;SDS011;4295;51.024;7.000;2022-12-01T01:23:39;97.00;;;14.50;;
8514;SDS011;4295;51.024;7.000;2022-12-01T01:26:06;93.37;;;14.40;;
8514;SDS011;4295;51.024;7.000;2022-12-01T01:28:37;93.53;;;15.93;;
8514;SDS011;4295;51.024;7.000;2022-12-01T01:31:06;96.83;;;14.30;;
8514;SDS011;4295;51.024;7.000;2022-12-01T01:33:33;94.27;;;16.03;;
8514;SDS011;4295;51.024;7.000;2022-12-01T01:35:59;94.73;;;16.47;;
8514;SDS011;4295;51.024;7.000;2022-12-01T01:38:26;95.13;;;16.60;;
8514;SDS011;4295;51.024;7.000;2022-12-01T01:40:52;93.00;;;16.70;;
8514;SDS011;4295;51.024;7.000;2022-12-01T01:43:36;94.93;;;16.73;;
8514;SDS011;4295;51.024;7.000;2022-12-01T01:46:18;92.17;;;15.63;;
8514;SDS011;4295;51.024;7.000;2022-12-01T01:48:45;93.73;;;15.67;;
8514;SDS011;4295;51.024;7.000;2022-12-01T01:51:13;97.10;;;16.97;;
8514;SDS011;4295;51.024;7.000;2022-12-01T01:53:41;97.00;;;18.77;;
8514;SDS011;4295;51.024;7.000;2022-12-01T01:56:09;96.97;;;18.13;;
8514;SDS011;4295;51.024;7.000;2022-12-01T01:58:35;101.20;;;17.83;;
8514;SDS011;4295;51.024;7.000;2022-12-01T02:01:02;95.70;;;18.17;;
8514;SDS011;4295;51.024;7.000;2022-12-01T02:03:27;100.37;;;19.80;;
8514;SDS011;4295;51.024;7.000;2022-12-01T02:05:53;100.47;;;18.33;;
8514;SDS011;4295;51.024;7.000;2022-12-01T02:08:19;96.33;;;17.80;;
8514;SDS011;4295;51.024;7.000;2022-12-01T02:25:18;96.20;;;18.13;;
8514;SDS011;4295;51.024;7.000;2022-12-01T02:30:43;102.70;;;17.67;;
8514;SDS011;4295;51.024;7.000;2022-12-01T02:35:57;103.37;;;17.67;;
8514;SDS011;4295;51.024;7.000;2022-12-01T02:38:26;98.13;;;17.23;;
8514;SDS011;4295;51.024;7.000;2022-12-01T02:48:58;99.60;;;19.20;;
8514;SDS011;4295;51.024;7.000;2022-12-01T02:51:31;99.60;;;18.13;;
8514;SDS011;4295;51.024;7.000;2022-12-01T02:54:00;93.33;;;15.90;;
8514;SDS011;4295;51.024;7.000;2022-12-01T02:56:27;94.17;;;16.90;;
8514;SDS011;4295;51.024;7.000;2022-12-01T02:58:52;100.23;;;16.63;;
8514;SDS011;4295;51.024;7.000;2022-12-01T03:06:57;97.57;;;17.90;;
8514;SDS011;4295;51.024;7.000;2022-12-01T03:14:53;91.90;;;16.17;;
8514;SDS011;4295;51.024;7.000;2022-12-01T03:17:46;96.57;;;17.70;;
8514;SDS011;4295;51.024;7.000;2022-12-01T03:22:50;92.03;;;16.10;;
8514;SDS011;4295;51.024;7.000;2022-12-01T03:25:20;98.93;;;16.83;;
8514;SDS011;4295;51.024;7.000;2022-12-01T03:27:50;92.20;;;15.53;;
8514;SDS011;4295;51.024;7.000;2022-12-01T03:30:20;95.30;;;16.07;;
8514;SDS011;4295;51.024;7.000;2022-12-01T03:32:59;93.63;;;15.53;;
8514;SDS011;4295;51.024;7.000;2022-12-01T03:35:34;94.47;;;14.90;;
8514;SDS011;4295;51.024;7.000;2022-12-01T03:38:07;94.00;;;15.90;;
8514;SDS011;4295;51.024;7.000;2022-12-01T03:40:53;91.97;;;15.90;;
8514;SDS011;4295;51.024;7.000;2022-12-01T03:43:23;102.80;;;16.93;;
8514;SDS011;4295;51.024;7.000;2022-12-01T03:46:11;91.07;;;15.87;;
8514;SDS011;4295;51.024;7.000;2022-12-01T03:48:45;96.33;;;15.37;;
8514;SDS011;4295;51.024;7.000;2022-12-01T03:51:36;95.80;;;16.07;;
8514;SDS011;4295;51.024;7.000;2022-12-01T03:54:17;97.53;;;16.83;;
8514;SDS011;4295;51.024;7.000;2022-12-01T03:56:50;100.17;;;17.83;;
8514;SDS011;4295;51.024;7.000;2022-12-01T03:59:20;100.33;;;16.23;;
8514;SDS011;4295;51.024;7.000;2022-12-01T04:01:49;98.53;;;16.67;;
8514;SDS011;4295;51.024;7.000;2022-12-01T04:04:14;100.67;;;18.73;;
8514;SDS011;4295;51.024;7.000;2022-12-01T04:06:41;104.17;;;19.00;;
8514;SDS011;4295;51.024;7.000;2022-12-01T04:09:10;104.67;;;18.47;;
8514;SDS011;4295;51.024;7.000;2022-12-01T04:11:35;102.87;;;18.90;;
8514;SDS011;4295;51.024;7.000;2022-12-01T04:14:19;102.17;;;19.13;;
8514;SDS011;4295;51.024;7.000;2022-12-01T04:16:45;108.57;;;19.93;;
8514;SDS011;4295;51.024;7.000;2022-12-01T04:19:10;108.60;;;21.17;;
8514;SDS011;4295;51.024;7.000;2022-12-01T04:21:36;105.67;;;21.50;;
8514;SDS011;4295;51.024;7.000;2022-12-01T04:24:01;107.80;;;22.13;;
8514;SDS011;4295;51.024;7.000;2022-12-01T04:26:27;118.70;;;21.37;;
8514;SDS011;4295;51.024;7.000;2022-12-01T04:28:54;115.57;;;22.93;;
8514;SDS011;4295;51.024;7.000;2022-12-01T04:31:19;116.20;;;22.73;;
8514;SDS011;4295;51.024;7.000;2022-12-01T04:33:44;108.97;;;21.47;;
8514;SDS011;4295;51.024;7.000;2022-12-01T04:36:10;114.20;;;21.50;;
8514;SDS011;4295;51.024;7.000;2022-12-01T04:38:35;112.90;;;22.63;;
8514;SDS011;4295;51.024;7.000;2022-12-01T04:41:07;118.17;;;21.50;;
8514;SDS011;4295;51.024;7.000;2022-12-01T04:43:34;118.03;;;24.13;;
8514;SDS011;4295;51.024;7.000;2022-12-01T04:46:00;117.43;;;23.20;;
8514;SDS011;4295;51.024;7.000;2022-12-01T04:48:25;114.07;;;22.83;;
8514;SDS011;4295;51.024;7.000;2022-12-01T04:50:50;114.67;;;22.30;;
8514;SDS011;4295;51.024;7.000;2022-12-01T04:53:15;124.23;;;25.00;;
8514;SDS011;4295;51.024;7.000;2022-12-01T04:55:41;116.77;;;23.73;;
8514;SDS011;4295;51.024;7.000;2022-12-01T04:58:06;116.07;;;24.77;;
8514;SDS011;4295;51.024;7.000;2022-12-01T05:00:32;120.33;;;24.60;;
8514;SDS011;4295;51.024;7.000;2022-12-01T05:02:57;117.03;;;26.50;;
8514;SDS011;4295;51.024;7.000;2022-12-01T05:05:23;116.63;;;23.20;;
8514;SDS011;4295;51.024;7.000;2022-12-01T05:07:49;115.90;;;24.77;;
8514;SDS011;4295;51.024;7.000;2022-12-01T05:10:15;118.97;;;23.57;;
8514;SDS011;4295;51.024;7.000;2022-12-01T05:12:43;118.03;;;25.77;;
8514;SDS011;4295;51.024;7.000;2022-12-01T05:15:10;116.07;;;26.07;;
8514;SDS011;4295;51.024;7.000;2022-12-01T05:17:36;114.10;;;24.33;;
8514;SDS011;4295;51.024;7.000;2022-12-01T05:20:01;115.30;;;23.50;;
8514;SDS011;4295;51.024;7.000;2022-12-01T05:22:45;114.57;;;24.70;;
8514;SDS011;4295;51.024;7.000;2022-12-01T05:25:11;103.43;;;21.03;;
8514;SDS011;4295;51.024;7.000;2022-12-01T05:27:36;109.47;;;21.70;;
8514;SDS011;4295;51.024;7.000;2022-12-01T05:30:02;109.77;;;21.43;;
8514;SDS011;4295;51.024;7.000;2022-12-01T05:32:27;106.27;;;20.30;;
8514;SDS011;4295;51.024;7.000;2022-12-01T05:34:53;109.07;;;22.37;;
8514;SDS011;4295;51.024;7.000;2022-12-01T05:37:18;111.10;;;21.40;;
8514;SDS011;4295;51.024;7.000;2022-12-01T05:39:43;111.90;;;20.97;;
8514;SDS011;4295;51.024;7.000;2022-12-01T05:42:09;105.33;;;20.43;;
8514;SDS011;4295;51.024;7.000;2022-12-01T05:44:34;107.10;;;19.80;;
8514;SDS011;4295;51.024;7.000;2022-12-01T05:46:59;106.67;;;20.07;;
8514;SDS011;4295;51.024;7.000;2022-12-01T05:49:24;105.57;;;19.23;;
8514;SDS011;4295;51.024;7.000;2022-12-01T05:51:50;108.93;;;21.60;;
8514;SDS011;4295;51.024;7.000;2022-12-01T05:54:15;105.83;;;19.37;;
8514;SDS011;4295;51.024;7.000;2022-12-01T05:56:40;100.47;;;18.20;;
8514;SDS011;4295;51.024;7.000;2022-12-01T05:59:06;102.30;;;20.90;;
8514;SDS011;4295;51.024;7.000;2022-12-01T06:01:31;103.47;;;19.20;;
8514;SDS011;4295;51.024;7.000;2022-12-01T06:03:56;101.47;;;18.63;;
8514;SDS011;4295;51.024;7.000;2022-12-01T06:06:22;103.80;;;18.80;;
8514;SDS011;4295;51.024;7.000;2022-12-01T06:08:47;102.10;;;18.77;;
8514;SDS011;4295;51.024;7.000;2022-12-01T06:11:12;99.60;;;17.60;;
8514;SDS011;4295;51.024;7.000;2022-12-01T06:13:38;105.20;;;19.90;;
8514;SDS011;4295;51.024;7.000;2022-12-01T06:16:03;104.93;;;19.10;;
8514;SDS011;4295;51.024;7.000;2022-12-01T06:18:31;107.10;;;19.37;;
8514;SDS011;4295;51.024;7.000;2022-12-01T06:21:02;101.07;;;17.80;;
8514;SDS011;4295;51.024;7.000;2022-12-01T06:23:29;98.67;;;17.60;;
8514;SDS011;4295;51.024;7.000;2022-12-01T06:25:55;102.20;;;16.70;;
8514;SDS011;4295;51.024;7.000;2022-12-01T06:28:20;99.93;;;16.70;;
8514;SDS011;4295;51.024;7.000;2022-12-01T06:30:45;94.67;;;15.00;;
8514;SDS011;4295;51.024;7.000;2022-12-01T06:33:11;101.60;;;16.63;;
8514;SDS011;4295;51.024;7.000;2022-12-01T06:35:36;101.57;;;18.47;;
8514;SDS011;4295;51.024;7.000;2022-12-01T06:38:02;103.90;;;19.57;;
8514;SDS011;4295;51.024;7.000;2022-12-01T06:40:27;107.23;;;18.37;;
8514;SDS011;4295;51.024;7.000;2022-12-01T06:42:53;108.73;;;20.33;;
8514;SDS011;4295;51.024;7.000;2022-12-01T06:45:18;107.17;;;19.50;;
8514;SDS011;4295;51.024;7.000;2022-12-01T06:47:44;103.20;;;19.90;;
8514;SDS011;4295;51.024;7.000;2022-12-01T06:50:12;110.20;;;20.50;;
8514;SDS011;4295;51.024;7.000;2022-12-01T06:52:37;106.30;;;19.83;;
8514;SDS011;4295;51.024;7.000;2022-12-01T06:55:03;100.53;;;19.17;;
8514;SDS011;4295;51.024;7.000;2022-12-01T06:57:29;107.10;;;18.90;;
8514;SDS011;4295;51.024;7.000;2022-12-01T06:59:54;101.07;;;18.50;;
8514;SDS011;4295;51.024;7.000;2022-12-01T07:02:20;103.87;;;20.63;;
8514;SDS011;4295;51.024;7.000;2022-12-01T07:04:45;105.03;;;19.50;;
8514;SDS011;4295;51.024;7.000;2022-12-01T07:07:11;105.80;;;18.57;;
8514;SDS011;4295;51.024;7.000;2022-12-01T07:09:37;106.17;;;21.77;;
8514;SDS011;4295;51.024;7.000;2022-12-01T07:12:03;99.40;;;19.40;;
8514;SDS011;4295;51.024;7.000;2022-12-01T07:14:28;109.30;;;20.43;;
8514;SDS011;4295;51.024;7.000;2022-12-01T07:16:55;109.77;;;20.37;;
8514;SDS011;4295;51.024;7.000;2022-12-01T07:19:21;108.37;;;20.40;;
8514;SDS011;4295;51.024;7.000;2022-12-01T07:21:47;111.40;;;21.23;;
8514;SDS011;4295;51.024;7.000;2022-12-01T07:24:12;103.30;;;20.03;;
8514;SDS011;4295;51.024;7.000;2022-12-01T07:26:38;114.03;;;22.47;;
8514;SDS011;4295;51.024;7.000;2022-12-01T07:29:05;113.77;;;22.47;;
8514;SDS011;4295;51.024;7.000;2022-12-01T07:31:30;112.40;;;22.20;;
8514;SDS011;4295;51.024;7.000;2022-12-01T07:33:56;107.73;;;21.00;;
8514;SDS011;4295;51.024;7.000;2022-12-01T07:36:21;110.70;;;21.07;;
8514;SDS011;4295;51.024;7.000;2022-12-01T07:38:46;107.30;;;21.23;;
8514;SDS011;4295;51.024;7.000;2022-12-01T07:41:13;115.87;;;21.90;;
8514;SDS011;4295;51.024;7.000;2022-12-01T07:43:40;104.80;;;20.57;;
8514;SDS011;4295;51.024;7.000;2022-12-01T07:46:10;106.27;;;20.57;;
8514;SDS011;4295;51.024;7.000;2022-12-01T07:48:38;105.63;;;20.67;;
8514;SDS011;4295;51.024;7.000;2022-12-01T07:51:08;106.97;;;21.73;;
8514;SDS011;4295;51.024;7.000;2022-12-01T07:53:36;109.97;;;20.77;;
8514;SDS011;4295;51.024;7.000;2022-12-01T07:56:02;99.20;;;17.80;;
8514;SDS011;4295;51.024;7.000;2022-12-01T07:58:28;107.80;;;20.70;;
8514;SDS011;4295;51.024;7.000;2022-12-01T08:00:54;111.40;;;21.23;;
8514;SDS011;4295;51.024;7.000;2022-12-01T08:03:20;106.63;;;19.93;;
8514;SDS011;4295;51.024;7.000;2022-12-01T08:05:54;108.83;;;19.93;;
8514;SDS011;4295;51.024;7.000;2022-12-01T08:08:21;111.40;;;20.13;;
8514;SDS011;4295;51.024;7.000;2022-12-01T08:10:46;105.23;;;19.47;;
8514;SDS011;4295;51.024;7.000;2022-12-01T08:13:12;105.20;;;19.03;;
8514;SDS011;4295;51.024;7.000;2022-12-01T08:15:37;112.10;;;20.77;;
8514;SDS011;4295;51.024;7.000;2022-12-01T08:18:03;105.03;;;19.10;;
8514;SDS011;4295;51.024;7.000;2022-12-01T08:20:28;101.13;;;19.70;;
8514;SDS011;4295;51.024;7.000;2022-12-01T08:22:53;107.43;;;19.67;;
8514;SDS011;4295;51.024;7.000;2022-12-01T08:25:18;105.77;;;19.77;;
8514;SDS011;4295;51.024;7.000;2022-12-01T08:27:44;102.90;;;19.50;;
8514;SDS011;4295;51.024;7.000;2022-12-01T08:30:09;113.90;;;20.90;;
8514;SDS011;4295;51.024;7.000;2022-12-01T08:32:35;105.83;;;19.50;;
8514;SDS011;4295;51.024;7.000;2022-12-01T08:35:00;106.70;;;19.17;;
8514;SDS011;4295;51.024;7.000;2022-12-01T08:37:26;110.50;;;19.40;;
8514;SDS011;4295;51.024;7.000;2022-12-01T08:39:51;116.47;;;19.60;;
8514;SDS011;4295;51.024;7.000;2022-12-01T08:42:16;103.40;;;18.30;;
8514;SDS011;4295;51.024;7.000;2022-12-01T08:44:42;103.10;;;18.30;;
8514;SDS011;4295;51.024;7.000;2022-12-01T08:47:07;110.40;;;20.17;;
8514;SDS011;4295;51.024;7.000;2022-12-01T08:49:32;101.00;;;18.93;;
8514;SDS011;4295;51.024;7.000;2022-12-01T08:51:58;103.07;;;17.80;;
8514;SDS011;4295;51.024;7.000;2022-12-01T08:54:23;101.70;;;17.87;;
8514;SDS011;4295;51.024;7.000;2022-12-01T08:56:48;102.90;;;17.90;;
8514;SDS011;4295;51.024;7.000;2022-12-01T08:59:13;100.43;;;17.60;;
8514;SDS011;4295;51.024;7.000;2022-12-01T09:01:39;98.43;;;17.40;;
8514;SDS011;4295;51.024;7.000;2022-12-01T09:04:17;107.17;;;17.17;;
8514;SDS011;4295;51.024;7.000;2022-12-01T09:06:47;99.80;;;16.33;;
8514;SDS011;4295;51.024;7.000;2022-12-01T09:09:15;100.73;;;17.60;;
8514;SDS011;4295;51.024;7.000;2022-12-01T09:11:42;99.90;;;16.10;;
8514;SDS011;4295;51.024;7.000;2022-12-01T09:14:09;99.67;;;17.17;;
8514;SDS011;4295;51.024;7.000;2022-12-01T09:16:35;99.43;;;18.23;;
8514;SDS011;4295;51.024;7.000;2022-12-01T09:19:01;96.07;;;16.67;;
8514;SDS011;4295;51.024;7.000;2022-12-01T09:21:27;97.83;;;15.30;;
8514;SDS011;4295;51.024;7.000;2022-12-01T09:23:57;98.57;;;15.30;;
8514;SDS011;4295;51.024;7.000;2022-12-01T09:26:24;98.43;;;17.43;;
8514;SDS011;4295;51.024;7.000;2022-12-01T09:28:53;95.57;;;16.17;;
8514;SDS011;4295;51.024;7.000;2022-12-01T09:31:20;97.43;;;17.33;;
8514;SDS011;4295;51.024;7.000;2022-12-01T09:33:53;93.80;;;15.90;;
8514;SDS011;4295;51.024;7.000;2022-12-01T09:36:20;93.40;;;15.27;;
8514;SDS011;4295;51.024;7.000;2022-12-01T09:38:45;95.00;;;16.27;;
8514;SDS011;4295;51.024;7.000;2022-12-01T09:41:14;99.70;;;16.07;;
8514;SDS011;4295;51.024;7.000;2022-12-01T09:43:46;98.93;;;15.03;;
8514;SDS011;4295;51.024;7.000;2022-12-01T09:46:18;103.10;;;17.37;;
8514;SDS011;4295;51.024;7.000;2022-12-01T09:48:46;95.20;;;16.53;;
8514;SDS011;4295;51.024;7.000;2022-12-01T09:51:14;98.67;;;15.00;;
8514;SDS011;4295;51.024;7.000;2022-12-01T09:53:41;94.17;;;15.20;;
8514;SDS011;4295;51.024;7.000;2022-12-01T09:56:15;92.30;;;16.07;;
8514;SDS011;4295;51.024;7.000;2022-12-01T09:58:48;97.00;;;16.97;;
8514;SDS011;4295;51.024;7.000;2022-12-01T10:01:18;91.27;;;13.50;;
8514;SDS011;4295;51.024;7.000;2022-12-01T10:03:49;94.80;;;15.23;;
8514;SDS011;4295;51.024;7.000;2022-12-01T10:06:28;91.37;;;15.10;;
8514;SDS011;4295;51.024;7.000;2022-12-01T10:11:35;90.30;;;14.37;;
8514;SDS011;4295;51.024;7.000;2022-12-01T10:14:03;90.03;;;13.17;;
8514;SDS011;4295;51.024;7.000;2022-12-01T10:16:34;91.90;;;14.00;;
8514;SDS011;4295;51.024;7.000;2022-12-01T10:19:08;95.10;;;14.80;;
8514;SDS011;4295;51.024;7.000;2022-12-01T10:24:31;87.63;;;13.30;;
8514;SDS011;4295;51.024;7.000;2022-12-01T10:29:47;86.87;;;12.10;;
8514;SDS011;4295;51.024;7.000;2022-12-01T10:32:19;89.57;;;13.97;;
8514;SDS011;4295;51.024;7.000;2022-12-01T10:34:47;87.73;;;12.87;;
8514;SDS011;4295;51.024;7.000;2022-12-01T10:37:19;85.97;;;11.10;;
8514;SDS011;4295;51.024;7.000;2022-12-01T10:39:47;86.57;;;11.63;;
8514;SDS011;4295;51.024;7.000;2022-12-01T10:44:50;83.87;;;11.27;;
8514;SDS011;4295;51.024;7.000;2022-12-01T10:47:19;84.73;;;11.70;;
8514;SDS011;4295;51.024;7.000;2022-12-01T10:49:46;84.47;;;11.13;;
8514;SDS011;4295;51.024;7.000;2022-12-01T10:52:47;83.87;;;11.20;;
8514;SDS011;4295;51.024;7.000;2022-12-01T10:55:27;82.90;;;9.73;;
8514;SDS011;4295;51.024;7.000;2022-12-01T10:57:55;80.60;;;10.40;;
8514;SDS011;4295;51.024;7.000;2022-12-01T11:00:27;82.43;;;9.93;;
8514;SDS011;4295;51.024;7.000;2022-12-01T11:02:58;82.70;;;10.17;;
8514;SDS011;4295;51.024;7.000;2022-12-01T11:05:24;84.80;;;10.47;;
8514;SDS011;4295;51.024;7.000;2022-12-01T11:07:52;82.90;;;9.57;;
8514;SDS011;4295;51.024;7.000;2022-12-01T11:15:40;83.50;;;9.90;;
8514;SDS011;4295;51.024;7.000;2022-12-01T11:18:21;84.43;;;10.53;;
8514;SDS011;4295;51.024;7.000;2022-12-01T11:23:43;84.40;;;10.60;;
8514;SDS011;4295;51.024;7.000;2022-12-01T11:28:52;86.83;;;10.70;;
8514;SDS011;4295;51.024;7.000;2022-12-01T11:31:22;88.90;;;12.53;;
8514;SDS011;4295;51.024;7.000;2022-12-01T11:34:00;89.70;;;12.13;;
8514;SDS011;4295;51.024;7.000;2022-12-01T11:38:57;92.40;;;13.47;;
8514;SDS011;4295;51.024;7.000;2022-12-01T11:43:59;92.97;;;13.20;;
8514;SDS011;4295;51.024;7.000;2022-12-01T11:46:30;90.83;;;14.97;;
8514;SDS011;4295;51.024;7.000;2022-12-01T11:48:59;88.47;;;12.80;;
8514;SDS011;4295;51.024;7.000;2022-12-01T11:51:27;94.73;;;17.27;;
8514;SDS011;4295;51.024;7.000;2022-12-01T11:56:46;98.27;;;17.57;;
8514;SDS011;4295;51.024;7.000;2022-12-01T11:59:23;99.60;;;17.27;;
8514;SDS011;4295;51.024;7.000;2022-12-01T12:04:39;99.83;;;19.60;;
8514;SDS011;4295;51.024;7.000;2022-12-01T12:07:15;101.57;;;17.07;;
8514;SDS011;4295;51.024;7.000;2022-12-01T12:09:50;104.93;;;19.50;;
8514;SDS011;4295;51.024;7.000;2022-12-01T12:26:02;104.77;;;20.00;;
8514;SDS011;4295;51.024;7.000;2022-12-01T12:28:48;103.73;;;20.80;;
8514;SDS011;4295;51.024;7.000;2022-12-01T12:36:58;108.93;;;20.80;;
8514;SDS011;4295;51.024;7.000;2022-12-01T12:42:36;104.07;;;19.80;;
8514;SDS011;4295;51.024;7.000;2022-12-01T12:45:32;102.77;;;19.13;;
8514;SDS011;4295;51.024;7.000;2022-12-01T12:53:18;101.60;;;18.50;;
8514;SDS011;4295;51.024;7.000;2022-12-01T12:55:50;100.47;;;18.53;;
8514;SDS011;4295;51.024;7.000;2022-12-01T12:58:27;105.37;;;18.60;;
8514;SDS011;4295;51.024;7.000;2022-12-01T13:01:02;101.80;;;18.00;;
8514;SDS011;4295;51.024;7.000;2022-12-01T13:06:10;102.30;;;19.23;;
8514;SDS011;4295;51.024;7.000;2022-12-01T13:08:44;102.73;;;18.37;;
8514;SDS011;4295;51.024;7.000;2022-12-01T13:11:17;105.27;;;19.43;;
8514;SDS011;4295;51.024;7.000;2022-12-01T13:16:29;105.77;;;19.20;;
8514;SDS011;4295;51.024;7.000;2022-12-01T13:19:02;106.17;;;20.27;;
8514;SDS011;4295;51.024;7.000;2022-12-01T13:22:04;100.97;;;17.30;;
8514;SDS011;4295;51.024;7.000;2022-12-01T13:24:26;106.17;;;18.80;;
8514;SDS011;4295;51.024;7.000;2022-12-01T13:26:55;106.23;;;21.23;;
8514;SDS011;4295;51.024;7.000;2022-12-01T13:29:24;102.67;;;19.13;;
8514;SDS011;4295;51.024;7.000;2022-12-01T13:31:52;103.53;;;19.90;;
8514;SDS011;4295;51.024;7.000;2022-12-01T13:34:26;100.27;;;16.90;;
8514;SDS011;4295;51.024;7.000;2022-12-01T13:37:01;103.27;;;19.13;;
8514;SDS011;4295;51.024;7.000;2022-12-01T13:39:27;105.60;;;20.13;;
8514;SDS011;4295;51.024;7.000;2022-12-01T13:44:50;100.90;;;19.27;;
8514;SDS011;4295;51.024;7.000;2022-12-01T13:54:40;108.10;;;21.40;;
8514;SDS011;4295;51.024;7.000;2022-12-01T13:57:25;102.80;;;19.63;;
8514;SDS011;4295;51.024;7.000;2022-12-01T14:02:25;103.90;;;19.60;;
8514;SDS011;4295;51.024;7.000;2022-12-01T14:04:52;105.57;;;18.97;;
8514;SDS011;4295;51.024;7.000;2022-12-01T14:07:19;105.00;;;21.33;;
8514;SDS011;4295;51.024;7.000;2022-12-01T14:09:45;108.07;;;21.03;;
8514;SDS011;4295;51.024;7.000;2022-12-01T14:12:15;100.00;;;19.33;;
8514;SDS011;4295;51.024;7.000;2022-12-01T14:14:48;116.30;;;22.27;;
8514;SDS011;4295;51.024;7.000;2022-12-01T14:17:35;108.27;;;21.03;;
8514;SDS011;4295;51.024;7.000;2022-12-01T14:22:45;108.70;;;21.53;;
8514;SDS011;4295;51.024;7.000;2022-12-01T14:27:47;108.80;;;21.27;;
8514;SDS011;4295;51.024;7.000;2022-12-01T14:38:46;107.87;;;21.70;;
8514;SDS011;4295;51.024;7.000;2022-12-01T14:41:27;107.67;;;20.37;;
8514;SDS011;4295;51.024;7.000;2022-12-01T14:43:56;104.43;;;20.97;;
8514;SDS011;4295;51.024;7.000;2022-12-01T14:46:30;110.50;;;22.80;;
8514;SDS011;4295;51.024;7.000;2022-12-01T14:49:10;103.23;;;21.30;;
8514;SDS011;4295;51.024;7.000;2022-12-01T14:51:40;105.00;;;20.43;;
8514;SDS011;4295;51.024;7.000;2022-12-01T14:54:13;101.10;;;18.40;;
8514;SDS011;4295;51.024;7.000;2022-12-01T14:56:43;103.30;;;18.90;;
8514;SDS011;4295;51.024;7.000;2022-12-01T14:59:17;98.63;;;18.43;;
8514;SDS011;4295;51.024;7.000;2022-12-01T15:01:46;101.93;;;19.57;;
8514;SDS011;4295;51.024;7.000;2022-12-01T15:04:15;102.57;;;19.70;;
8514;SDS011;4295;51.024;7.000;2022-12-01T15:06:40;100.00;;;17.63;;
8514;SDS011;4295;51.024;7.000;2022-12-01T15:09:17;100.70;;;17.20;;
8514;SDS011;4295;51.024;7.000;2022-12-01T15:16:52;109.30;;;23.10;;
8514;SDS011;4295;51.024;7.000;2022-12-01T15:19:21;105.40;;;20.60;;
8514;SDS011;4295;51.024;7.000;2022-12-01T15:21:47;104.87;;;20.53;;
8514;SDS011;4295;51.024;7.000;2022-12-01T15:26:48;109.97;;;20.20;;
8514;SDS011;4295;51.024;7.000;2022-12-01T15:29:23;98.23;;;19.30;;
8514;SDS011;4295;51.024;7.000;2022-12-01T15:31:58;103.43;;;20.23;;
8514;SDS011;4295;51.024;7.000;2022-12-01T15:34:27;99.97;;;19.70;;
8514;SDS011;4295;51.024;7.000;2022-12-01T15:36:55;99.77;;;18.57;;
8514;SDS011;4295;51.024;7.000;2022-12-01T15:39:24;109.07;;;20.70;;
8514;SDS011;4295;51.024;7.000;2022-12-01T15:42:01;102.03;;;20.37;;
8514;SDS011;4295;51.024;7.000;2022-12-01T15:44:34;95.77;;;17.80;;
8514;SDS011;4295;51.024;7.000;2022-12-01T15:52:57;104.10;;;18.47;;
8514;SDS011;4295;51.024;7.000;2022-12-01T15:55:34;100.27;;;18.87;;
8514;SDS011;4295;51.024;7.000;2022-12-01T15:58:05;105.93;;;20.70;;
8514;SDS011;4295;51.024;7.000;2022-12-01T16:00:32;110.93;;;18.83;;
8514;SDS011;4295;51.024;7.000;2022-12-01T16:02:58;97.80;;;18.00;;
8514;SDS011;4295;51.024;7.000;2022-12-01T16:05:29;102.47;;;21.20;;
8514;SDS011;4295;51.024;7.000;2022-12-01T16:08:20;98.53;;;18.20;;
8514;SDS011;4295;51.024;7.000;2022-12-01T16:11:08;100.20;;;19.97;;
8514;SDS011;4295;51.024;7.000;2022-12-01T16:13:55;97.30;;;17.83;;
8514;SDS011;4295;51.024;7.000;2022-12-01T16:16:42;96.77;;;17.37;;
8514;SDS011;4295;51.024;7.000;2022-12-01T16:24:06;98.77;;;19.23;;
8514;SDS011;4295;51.024;7.000;2022-12-01T16:26:51;99.50;;;19.93;;
8514;SDS011;4295;51.024;7.000;2022-12-01T16:29:20;100.83;;;19.30;;
8514;SDS011;4295;51.024;7.000;2022-12-01T16:31:48;102.90;;;21.00;;
8514;SDS011;4295;51.024;7.000;2022-12-01T16:34:15;109.40;;;21.97;;
8514;SDS011;4295;51.024;7.000;2022-12-01T16:36:42;103.80;;;21.13;;
8514;SDS011;4295;51.024;7.000;2022-12-01T16:39:07;101.67;;;20.40;;
8514;SDS011;4295;51.024;7.000;2022-12-01T16:41:33;102.07;;;20.47;;
8514;SDS011;4295;51.024;7.000;2022-12-01T16:44:02;107.60;;;22.40;;
8514;SDS011;4295;51.024;7.000;2022-12-01T16:46:28;103.80;;;21.80;;
8514;SDS011;4295;51.024;7.000;2022-12-01T16:48:53;105.10;;;21.03;;
8514;SDS011;4295;51.024;7.000;2022-12-01T16:51:19;103.70;;;21.83;;
8514;SDS011;4295;51.024;7.000;2022-12-01T16:53:44;103.53;;;22.10;;
8514;SDS011;4295;51.024;7.000;2022-12-01T16:56:12;109.03;;;25.90;;
8514;SDS011;4295;51.024;7.000;2022-12-01T16:58:38;102.40;;;21.73;;
8514;SDS011;4295;51.024;7.000;2022-12-01T17:01:04;107.27;;;22.80;;
8514;SDS011;4295;51.024;7.000;2022-12-01T17:03:30;108.40;;;22.70;;
8514;SDS011;4295;51.024;7.000;2022-12-01T17:05:57;111.77;;;24.33;;
8514;SDS011;4295;51.024;7.000;2022-12-01T17:08:24;112.10;;;23.93;;
8514;SDS011;4295;51.024;7.000;2022-12-01T17:10:49;111.47;;;23.93;;
8514;SDS011;4295;51.024;7.000;2022-12-01T17:13:16;110.60;;;23.63;;
8514;SDS011;4295;51.024;7.000;2022-12-01T17:15:43;108.77;;;25.23;;
8514;SDS011;4295;51.024;7.000;2022-12-01T17:18:11;117.90;;;26.63;;
8514;SDS011;4295;51.024;7.000;2022-12-01T17:20:37;114.00;;;25.30;;
8514;SDS011;4295;51.024;7.000;2022-12-01T17:23:03;106.67;;;22.77;;